UARR

Details ICAO UARR (URA)
Name URALSK
Region Kazakhstan and Kyrgyzstan
Timezone Asia/Oral (UTC+5.0)
Plans Departing 31
Arriving 30
Stats Elevation 125 ft / 38 m (AMSL)
Location 51.150900° 51.541500°
Runways 1
Magnetic Variation 10.999° E
Sunrise 2018-10-23 03:11:21 UTC / 2018-10-23 08:11:21 Local
Sunset 2018-10-23 13:27:21 UTC / 2018-10-23 18:27:21 Local
Advertisement - Login to hide

Runways

ID Width Length Bearing (true/mag) Surface Threshold Overrun Markings Lighting
04 138 ft / 42 m 7,858 ft / 2,395 m 51.88° / 40.88° CONCRETE 0 ft / 0 m 0 ft / 0 m APP EDGE THRESHOLD MALS
22 138 ft / 42 m 7,858 ft / 2,395 m 231.90° / 220.90° CONCRETE 0 ft / 0 m 0 ft / 0 m PREC-APP EDGE THRESHOLD MALS

Approach Navaids

Runway Type Ident Frequency Range Bearing (true/mag) Slope Elevation
22 LOC-ILS IUR 109.70 MHz 18 nm / 33 km 230.24° / 219.24° - 125 ft / 38 m (AMSL)
22 GS IUR 109.70 MHz 10 nm / 19 km 232.78° / 221.79° 2.40° 125 ft / 38 m (AMSL)
22 OM OM - - 231.89° / 220.89° - 125 ft / 38 m (AMSL)
22 MM MM - - 231.89° / 220.89° - 125 ft / 38 m (AMSL)

Map

Weather


0- 5 10 15 20 25 30 35+ Temperature / °C

Clouds and Precipitation
Forecast for 2018-10-22 18:00 UTC. Updated 6 hours ago

Ground ~20,000 ft ~40,000 ft Winds

METAR

UARR 222100Z 12003MPS CAVOK M03/M05 Q1024 R04/CLRD70 NOSIG RMK QFE765/1020

TAF

Not found

Frequencies

Tower 119.70 MHz
Warning: Do not use this data for real-world aviation or navigation. No guarantee of current accuracy is given.